createdAt,value
2022-10-09T00:00:32.552Z,98.42
2022-10-09T00:01:32.561Z,98.42
2022-10-09T00:02:32.643Z,98.32
2022-10-09T00:03:35.311Z,98.42
2022-10-09T00:04:32.519Z,98.11
2022-10-09T00:05:33.359Z,98.52
2022-10-09T00:06:32.656Z,98.52
2022-10-09T00:07:32.474Z,98.32
2022-10-09T00:08:33.306Z,98.62
2022-10-09T00:09:32.837Z,98.93
2022-10-09T00:10:32.447Z,99.14
2022-10-09T00:11:35.308Z,99.14
2022-10-09T00:12:32.420Z,99.24
2022-10-09T00:13:32.428Z,98.93
2022-10-09T00:14:32.418Z,98.88
2022-10-09T00:15:33.327Z,98.77
2022-10-09T00:16:32.465Z,99.04
2022-10-09T00:17:35.304Z,98.62
2022-10-09T00:18:33.307Z,99.14
2022-10-09T00:19:33.314Z,98.77
2022-10-09T00:20:32.347Z,98.97
2022-10-09T00:21:32.347Z,98.67
2022-10-09T00:22:34.808Z,98.25
2022-10-09T00:23:32.294Z,98.57
2022-10-09T00:24:32.291Z,98.46
2022-10-09T00:25:32.334Z,98.57
2022-10-09T00:26:32.272Z,98.46
2022-10-09T00:27:32.253Z,98.67
2022-10-09T00:28:37.721Z,98.67
2022-10-09T00:29:33.343Z,98.61
2022-10-09T00:30:32.298Z,98.41
2022-10-09T00:31:32.253Z,98.57
2022-10-09T00:32:32.198Z,98.30
2022-10-09T00:33:34.806Z,98.30
2022-10-09T00:34:32.809Z,98.92
2022-10-09T00:35:32.167Z,98.92
2022-10-09T00:36:32.176Z,99.02
2022-10-09T00:37:32.166Z,99.13
2022-10-09T00:38:32.131Z,98.97
2022-10-09T00:39:34.806Z,98.97
2022-10-09T00:40:32.115Z,99.02
2022-10-09T00:41:32.098Z,98.77
2022-10-09T00:42:32.093Z,98.88
2022-10-09T00:43:32.087Z,98.36
2022-10-09T00:44:32.058Z,98.67
2022-10-09T00:45:34.812Z,98.67
2022-10-09T00:46:32.080Z,98.61
2022-10-09T00:47:32.830Z,98.67
2022-10-09T00:48:33.302Z,99.08
2022-10-09T00:49:32.013Z,99.13
2022-10-09T00:50:32.007Z,98.71
2022-10-09T00:51:31.987Z,98.82
2022-10-09T00:52:32.004Z,98.61
2022-10-09T00:53:31.962Z,98.35
2022-10-09T00:54:31.996Z,98.50
2022-10-09T00:55:32.802Z,98.76
2022-10-09T00:56:31.936Z,98.86
2022-10-09T00:57:31.924Z,98.86
2022-10-09T00:58:31.932Z,98.45
2022-10-09T00:59:31.896Z,98.71
2022-10-09T01:00:31.905Z,99.07
2022-10-09T01:01:34.858Z,99.33
2022-10-09T01:02:31.914Z,99.27
2022-10-09T01:03:34.835Z,99.13
2022-10-09T01:04:31.841Z,98.76
2022-10-09T01:05:31.832Z,99.02
2022-10-09T01:06:31.842Z,98.86
2022-10-09T01:07:32.309Z,99.17
2022-10-09T01:08:31.792Z,98.92
2022-10-09T01:09:31.787Z,99.02
2022-10-09T01:10:31.769Z,98.71
2022-10-09T01:11:31.768Z,98.50
2022-10-09T01:12:31.784Z,98.76
2022-10-09T01:13:34.305Z,99.17
2022-10-09T01:14:31.741Z,99.33
2022-10-09T01:15:31.755Z,99.02
2022-10-09T01:16:31.707Z,98.82
2022-10-09T01:17:32.763Z,99.13
2022-10-09T01:18:31.686Z,98.92
2022-10-09T01:19:32.009Z,98.55
2022-10-09T01:20:31.661Z,98.41
2022-10-09T01:21:31.654Z,98.45
2022-10-09T01:22:31.649Z,98.76
2022-10-09T01:23:31.663Z,98.97
2022-10-09T01:24:34.320Z,98.41
2022-10-09T01:25:32.358Z,98.55
2022-10-09T01:26:31.592Z,98.76
2022-10-09T01:27:31.606Z,98.66
2022-10-09T01:28:31.632Z,98.70
2022-10-09T01:29:31.841Z,98.50
2022-10-09T01:30:31.565Z,98.97
2022-10-09T01:31:31.644Z,98.76
2022-10-09T01:32:31.536Z,99.01
2022-10-09T01:33:34.313Z,98.86
2022-10-09T01:34:31.543Z,98.86
2022-10-09T01:35:31.688Z,98.66
2022-10-09T01:36:31.490Z,98.86
2022-10-09T01:37:31.506Z,99.01
2022-10-09T01:38:32.310Z,98.66
2022-10-09T01:39:39.344Z,98.60
2022-10-09T01:40:31.448Z,98.60
2022-10-09T01:41:31.446Z,98.70
2022-10-09T01:42:31.844Z,98.91
2022-10-09T01:43:31.415Z,99.11
2022-10-09T01:44:46.310Z,99.01
2022-10-09T01:45:38.316Z,99.52
2022-10-09T01:46:32.432Z,99.11
2022-10-09T01:47:31.840Z,99.48
2022-10-09T01:48:32.308Z,98.91
2022-10-09T01:49:32.316Z,99.63
2022-10-09T01:50:32.304Z,99.32
2022-10-09T01:51:31.471Z,98.91
2022-10-09T01:52:31.346Z,99.22
2022-10-09T01:53:33.803Z,99.52
2022-10-09T01:54:31.813Z,99.22
2022-10-09T01:55:31.813Z,99.22
2022-10-09T01:56:33.813Z,99.01
2022-10-09T01:57:31.346Z,98.75
2022-10-09T01:58:31.260Z,98.65
2022-10-09T01:59:33.804Z,99.06
2022-10-09T02:00:31.251Z,98.96
2022-10-09T02:01:31.333Z,99.26
2022-10-09T02:02:52.826Z,99.16
2022-10-09T02:03:31.204Z,98.54
2022-10-09T02:04:33.821Z,99.06
2022-10-09T02:05:31.178Z,98.85
2022-10-09T02:06:31.819Z,99.26
2022-10-09T02:07:31.367Z,99.47
2022-10-09T02:08:31.338Z,99.68
2022-10-09T02:09:31.137Z,99.37
2022-10-09T02:10:31.133Z,99.26
2022-10-09T02:11:31.144Z,99.68
2022-10-09T02:12:31.105Z,99.57
2022-10-09T02:13:31.091Z,99.06
2022-10-09T02:14:31.342Z,99.16
2022-10-09T02:15:31.248Z,98.65
2022-10-09T02:16:36.125Z,98.75
2022-10-09T02:17:32.811Z,98.69
2022-10-09T02:18:31.810Z,99.31
2022-10-09T02:19:31.057Z,99.47
2022-10-09T02:20:31.058Z,99.21
2022-10-09T02:21:31.017Z,99.52
2022-10-09T02:22:31.004Z,99.00
2022-10-09T02:23:31.006Z,99.31
2022-10-09T02:24:30.997Z,99.72
2022-10-09T02:25:31.817Z,99.41
2022-10-09T02:26:31.836Z,99.41
2022-10-09T02:27:30.955Z,99.72
2022-10-09T02:28:30.993Z,99.46
2022-10-09T02:29:31.808Z,99.72
2022-10-09T02:30:30.895Z,99.52
2022-10-09T02:31:30.976Z,99.31
2022-10-09T02:32:30.894Z,98.94
2022-10-09T02:33:30.880Z,99.35
2022-10-09T02:34:30.865Z,99.35
2022-10-09T02:35:52.818Z,99.77
2022-10-09T02:36:31.804Z,98.94
2022-10-09T02:37:30.862Z,99.31
2022-10-09T02:38:37.835Z,98.94
2022-10-09T02:39:30.829Z,99.87
2022-10-09T02:40:30.799Z,99.56
2022-10-09T02:41:30.803Z,98.43
2022-10-09T02:42:30.837Z,99.25
2022-10-09T02:43:30.775Z,99.56
2022-10-09T02:44:31.329Z,99.15
2022-10-09T02:45:33.307Z,99.05
2022-10-09T02:46:30.845Z,99.05
2022-10-09T02:47:30.723Z,99.25
2022-10-09T02:48:30.842Z,98.94
2022-10-09T02:49:30.702Z,99.77
2022-10-09T02:50:33.316Z,99.87
2022-10-09T02:51:33.306Z,99.77
2022-10-09T02:52:51.970Z,99.77
2022-10-09T02:53:30.688Z,99.35
2022-10-09T02:54:45.330Z,98.63
2022-10-09T02:55:30.652Z,99.56
2022-10-09T02:56:30.630Z,99.25
2022-10-09T02:57:30.625Z,99.05
2022-10-09T02:58:30.613Z,99.66
2022-10-09T02:59:33.309Z,99.77
2022-10-09T03:00:30.610Z,99.46
2022-10-09T03:01:30.867Z,99.35
2022-10-09T03:02:30.736Z,98.84
2022-10-09T03:03:37.320Z,98.78
2022-10-09T03:04:31.316Z,98.74
2022-10-09T03:05:31.315Z,99.35
2022-10-09T03:06:30.539Z,99.92
2022-10-09T03:07:30.515Z,99.46
2022-10-09T03:08:30.505Z,99.56
2022-10-09T03:09:33.689Z,98.94
2022-10-09T03:10:30.491Z,99.25
2022-10-09T03:11:30.482Z,98.99
2022-10-09T03:12:30.451Z,99.09
2022-10-09T03:13:30.455Z,99.19
2022-10-09T03:14:30.439Z,99.30
2022-10-09T03:15:31.473Z,99.09
2022-10-09T03:16:30.496Z,99.30
2022-10-09T03:17:30.436Z,99.40
2022-10-09T03:18:45.307Z,99.09
2022-10-09T03:19:32.327Z,99.40
2022-10-09T03:20:30.368Z,99.82
2022-10-09T03:21:30.355Z,99.82
2022-10-09T03:22:31.320Z,98.57
2022-10-09T03:23:30.357Z,99.99
2022-10-09T03:24:30.340Z,99.25
2022-10-09T03:25:30.306Z,99.56
2022-10-09T03:26:30.340Z,99.77
2022-10-09T03:27:30.322Z,99.87
2022-10-09T03:28:32.845Z,99.56
2022-10-09T03:29:30.280Z,99.40
2022-10-09T03:30:30.264Z,99.92
2022-10-09T03:32:31.365Z,99.40
2022-10-09T03:33:30.237Z,99.40
2022-10-09T03:34:30.218Z,99.40
2022-10-09T03:35:30.211Z,99.82
2022-10-09T03:36:30.209Z,99.61
2022-10-09T03:37:30.343Z,99.30
2022-10-09T03:38:30.176Z,99.44
2022-10-09T03:39:31.879Z,99.19
2022-10-09T03:40:36.814Z,99.65
2022-10-09T03:41:30.150Z,99.55
2022-10-09T03:42:30.164Z,99.34
2022-10-09T03:43:31.170Z,99.55
2022-10-09T03:44:30.113Z,99.34
2022-10-09T03:45:30.109Z,99.65
2022-10-09T03:46:30.184Z,99.65
2022-10-09T03:47:30.337Z,99.55
2022-10-09T03:48:30.079Z,99.55
2022-10-09T03:49:30.062Z,99.65
2022-10-09T03:50:30.044Z,99.04
2022-10-09T03:51:30.050Z,99.65
2022-10-09T03:52:30.346Z,99.24
2022-10-09T03:53:30.351Z,99.51
2022-10-09T03:54:30.007Z,99.44
2022-10-09T03:55:30.332Z,99.76
2022-10-09T03:56:30.813Z,99.96
2022-10-09T03:57:32.926Z,99.99
2022-10-09T03:58:29.977Z,99.44
2022-10-09T03:59:29.956Z,99.44
2022-10-09T04:00:29.968Z,99.55
2022-10-09T04:01:29.927Z,99.55
2022-10-09T04:02:29.972Z,99.55
2022-10-09T04:03:30.813Z,99.40
2022-10-09T04:04:29.893Z,99.51
2022-10-09T04:05:29.917Z,99.51
2022-10-09T04:06:32.804Z,99.51
2022-10-09T04:07:30.816Z,99.51
2022-10-09T04:08:29.851Z,99.44
2022-10-09T04:09:29.848Z,99.96
2022-10-09T04:10:29.838Z,99.92
2022-10-09T04:11:29.843Z,99.99
2022-10-09T04:12:30.309Z,99.86
2022-10-09T04:13:29.817Z,99.99
2022-10-09T04:14:44.315Z,99.99
2022-10-09T04:15:29.839Z,99.99
2022-10-09T04:16:29.878Z,99.99
2022-10-09T04:17:29.752Z,99.99
2022-10-09T04:18:29.744Z,99.99
2022-10-09T04:19:29.733Z,99.99
2022-10-09T04:20:29.744Z,99.99
2022-10-09T04:21:29.705Z,99.65
2022-10-09T04:22:29.705Z,99.76
2022-10-09T04:23:29.836Z,99.99
2022-10-09T04:24:29.682Z,99.24
2022-10-09T04:25:29.664Z,99.96
2022-10-09T04:26:29.846Z,99.86
2022-10-09T04:27:29.638Z,99.96
2022-10-09T04:28:29.728Z,99.96
2022-10-09T04:29:36.324Z,99.99
2022-10-09T04:30:29.615Z,99.99
2022-10-09T04:31:29.702Z,99.99
2022-10-09T04:32:29.841Z,99.99
2022-10-09T04:33:29.581Z,99.76
2022-10-09T04:34:32.314Z,99.49
2022-10-09T04:35:29.562Z,99.49
2022-10-09T04:36:30.308Z,99.39
2022-10-09T04:37:30.315Z,99.49
2022-10-09T04:38:29.539Z,99.70
2022-10-09T04:39:29.512Z,99.80
2022-10-09T04:40:29.840Z,99.99
2022-10-09T04:41:33.526Z,99.91
2022-10-09T04:42:30.481Z,99.91
2022-10-09T04:43:30.323Z,99.70
2022-10-09T04:44:31.355Z,99.80
2022-10-09T04:45:29.524Z,99.39
2022-10-09T04:46:30.314Z,99.96
2022-10-09T04:47:32.304Z,99.99
2022-10-09T04:48:29.423Z,99.99
2022-10-09T04:49:29.839Z,99.99
2022-10-09T04:50:29.398Z,99.91
2022-10-09T04:51:29.383Z,99.96
2022-10-09T04:52:29.390Z,99.60
2022-10-09T04:53:29.355Z,99.34
2022-10-09T04:54:29.372Z,99.80
2022-10-09T04:55:29.354Z,99.60
2022-10-09T04:56:30.311Z,99.39
2022-10-09T04:57:29.322Z,99.29
2022-10-09T04:58:29.314Z,99.70
2022-10-09T04:59:29.809Z,99.60
2022-10-09T05:00:29.343Z,99.60
2022-10-09T05:01:32.075Z,99.80
2022-10-09T05:02:30.401Z,99.85
2022-10-09T05:03:29.261Z,99.95
2022-10-09T05:04:29.242Z,99.43
2022-10-09T05:05:29.227Z,99.64
2022-10-09T05:06:29.806Z,99.64
2022-10-09T05:07:29.223Z,99.43
2022-10-09T05:08:29.208Z,99.54
2022-10-09T05:09:29.195Z,99.64
2022-10-09T05:10:29.189Z,99.99
2022-10-09T05:11:29.186Z,99.70
2022-10-09T05:12:29.170Z,99.99
2022-10-09T05:13:29.146Z,99.99
2022-10-09T05:14:29.156Z,99.99
2022-10-09T05:15:29.137Z,99.99
2022-10-09T05:16:29.226Z,99.99
2022-10-09T05:17:29.233Z,99.99
2022-10-09T05:18:29.117Z,99.99
2022-10-09T05:19:29.077Z,99.99
2022-10-09T05:20:30.115Z,99.99
2022-10-09T05:21:29.812Z,99.99
2022-10-09T05:22:29.053Z,99.99
2022-10-09T05:23:29.374Z,99.99
2022-10-09T05:24:29.339Z,99.99
2022-10-09T05:25:29.015Z,99.99
2022-10-09T05:26:29.000Z,99.99
2022-10-09T05:27:28.995Z,99.99
2022-10-09T05:28:29.840Z,99.99
2022-10-09T05:29:28.990Z,99.99
2022-10-09T05:30:31.809Z,99.99
2022-10-09T05:31:29.322Z,99.99
2022-10-09T05:32:29.811Z,99.99
2022-10-09T05:33:28.950Z,99.99
2022-10-09T05:34:28.931Z,99.99
2022-10-09T05:35:28.919Z,99.99
2022-10-09T05:36:28.899Z,99.99
2022-10-09T05:37:29.837Z,99.99
2022-10-09T05:38:28.881Z,99.99
2022-10-09T05:39:29.814Z,99.99
2022-10-09T05:40:29.822Z,99.99
2022-10-09T05:41:28.832Z,99.99
2022-10-09T05:42:28.849Z,99.99
2022-10-09T05:43:28.818Z,99.99
2022-10-09T05:44:28.810Z,99.99
2022-10-09T05:45:28.901Z,99.99
2022-10-09T05:46:31.317Z,99.99
2022-10-09T05:47:29.308Z,99.99
2022-10-09T05:48:28.764Z,99.95
2022-10-09T05:49:28.803Z,99.85
2022-10-09T05:50:28.840Z,99.99
2022-10-09T05:51:28.733Z,99.99
2022-10-09T05:52:28.833Z,99.99
2022-10-09T05:53:28.718Z,99.99
2022-10-09T05:54:28.826Z,99.99
2022-10-09T05:55:28.709Z,99.99
2022-10-09T05:56:28.679Z,99.99
2022-10-09T05:57:28.664Z,99.99
2022-10-09T05:58:28.650Z,99.99
2022-10-09T05:59:28.652Z,99.99
2022-10-09T06:00:28.946Z,99.99
2022-10-09T06:01:29.373Z,99.99
2022-10-09T06:02:28.697Z,99.99
2022-10-09T06:03:31.306Z,99.99
2022-10-09T06:04:28.612Z,99.74
2022-10-09T06:05:29.323Z,99.99
2022-10-09T06:06:29.312Z,99.99
2022-10-09T06:07:28.556Z,99.99
2022-10-09T06:08:28.563Z,99.99
2022-10-09T06:09:28.552Z,99.99
2022-10-09T06:10:32.376Z,99.99
2022-10-09T06:11:28.518Z,99.99
2022-10-09T06:12:28.506Z,99.99
2022-10-09T06:13:28.494Z,99.99
2022-10-09T06:14:28.503Z,99.99
2022-10-09T06:15:31.316Z,99.99
2022-10-09T06:16:29.355Z,99.99
2022-10-09T06:17:28.448Z,99.99
2022-10-09T06:18:28.433Z,99.99
2022-10-09T06:19:29.307Z,99.99
2022-10-09T06:20:28.466Z,99.99
2022-10-09T06:21:28.425Z,99.99
2022-10-09T06:22:28.397Z,99.99
2022-10-09T06:23:28.385Z,99.99
2022-10-09T06:24:29.515Z,99.99
2022-10-09T06:25:28.366Z,99.99
2022-10-09T06:26:28.371Z,99.99
2022-10-09T06:27:28.349Z,99.99
2022-10-09T06:28:32.467Z,99.99
2022-10-09T06:29:28.320Z,99.99
2022-10-09T06:30:29.458Z,99.99
2022-10-09T06:31:28.392Z,99.99
2022-10-09T06:32:28.341Z,99.99
2022-10-09T06:33:34.815Z,99.99
2022-10-09T06:34:28.269Z,99.99
2022-10-09T06:35:28.270Z,99.99
2022-10-09T06:36:30.823Z,99.99
2022-10-09T06:37:28.252Z,99.99
2022-10-09T06:38:28.224Z,99.99
2022-10-09T06:39:30.810Z,99.99
2022-10-09T06:40:28.805Z,99.99
2022-10-09T06:41:30.817Z,99.99
2022-10-09T06:42:28.182Z,99.99
2022-10-09T06:43:28.195Z,99.99
2022-10-09T06:44:28.151Z,99.99
2022-10-09T06:45:28.149Z,99.99
2022-10-09T06:46:42.803Z,99.99
2022-10-09T06:47:28.144Z,99.99
2022-10-09T06:48:28.114Z,99.99
2022-10-09T06:49:30.823Z,99.99
2022-10-09T06:50:28.098Z,99.99
2022-10-09T06:51:28.072Z,99.99
2022-10-09T06:52:28.083Z,99.99
2022-10-09T06:53:28.337Z,99.99
2022-10-09T06:54:28.065Z,99.99
2022-10-09T06:55:28.884Z,99.99
2022-10-09T06:56:28.032Z,99.99
2022-10-09T06:57:28.013Z,99.99
2022-10-09T06:58:28.004Z,99.99
2022-10-09T06:59:28.330Z,99.99
2022-10-09T07:00:27.984Z,99.99
2022-10-09T07:01:28.001Z,99.99
2022-10-09T07:02:29.046Z,99.99
2022-10-09T07:03:27.941Z,99.99
2022-10-09T07:04:27.962Z,99.99
2022-10-09T07:05:27.926Z,99.99
2022-10-09T07:06:27.918Z,99.99
2022-10-09T07:07:28.835Z,99.99
2022-10-09T07:08:27.909Z,99.99
2022-10-09T07:09:27.880Z,99.99
2022-10-09T07:10:27.869Z,99.99
2022-10-09T07:11:27.858Z,99.99
2022-10-09T07:12:27.861Z,99.99
2022-10-09T07:13:27.852Z,99.99
2022-10-09T07:14:42.812Z,99.99
2022-10-09T07:15:27.923Z,99.99
2022-10-09T07:16:27.935Z,99.99
2022-10-09T07:17:27.825Z,99.99
2022-10-09T07:18:27.787Z,99.99
2022-10-09T07:19:27.785Z,99.99
2022-10-09T07:20:27.762Z,99.99
2022-10-09T07:21:28.319Z,99.99
2022-10-09T07:22:27.833Z,99.99
2022-10-09T07:23:27.743Z,99.99
2022-10-09T07:24:27.749Z,99.99
2022-10-09T07:25:27.716Z,99.99
2022-10-09T07:26:27.700Z,99.99
2022-10-09T07:27:27.691Z,99.99
2022-10-09T07:28:27.772Z,99.99
2022-10-09T07:29:28.314Z,99.99
2022-10-09T07:30:27.675Z,99.99
2022-10-09T07:31:27.665Z,99.99
2022-10-09T07:32:27.629Z,99.99
2022-10-09T07:33:27.632Z,99.99
2022-10-09T07:34:27.612Z,99.99
2022-10-09T07:35:27.625Z,99.99
2022-10-09T07:36:27.599Z,99.99
2022-10-09T07:37:27.586Z,99.99
2022-10-09T07:38:27.600Z,99.99
2022-10-09T07:39:27.581Z,99.99
2022-10-09T07:40:27.572Z,99.99
2022-10-09T07:41:27.560Z,99.99
2022-10-09T07:42:30.330Z,99.99
2022-10-09T07:43:30.311Z,99.99
2022-10-09T07:44:27.525Z,99.99
2022-10-09T07:45:27.505Z,99.99
2022-10-09T07:46:32.129Z,99.99
2022-10-09T07:47:28.465Z,99.99
2022-10-09T07:48:27.466Z,99.99
2022-10-09T07:49:38.335Z,99.99
2022-10-09T07:50:27.452Z,99.99
2022-10-09T07:51:27.430Z,99.99
2022-10-09T07:52:27.423Z,99.99
2022-10-09T07:53:27.413Z,99.99
2022-10-09T07:54:30.303Z,99.99
2022-10-09T07:55:27.408Z,99.99
2022-10-09T07:56:27.393Z,99.99
2022-10-09T07:57:27.376Z,99.99
2022-10-09T07:58:27.350Z,99.99
2022-10-09T07:59:27.341Z,99.99
2022-10-09T08:00:30.306Z,99.99
2022-10-09T08:01:28.414Z,99.99
2022-10-09T08:02:27.361Z,99.99
2022-10-09T08:03:29.803Z,99.99
2022-10-09T08:04:27.297Z,99.99
2022-10-09T08:05:27.276Z,99.99
2022-10-09T08:06:27.272Z,99.99
2022-10-09T08:07:31.335Z,99.99
2022-10-09T08:08:28.342Z,99.99
2022-10-09T08:09:27.227Z,99.99
2022-10-09T08:10:27.201Z,99.99
2022-10-09T08:11:27.209Z,99.99
2022-10-09T08:12:30.346Z,99.99
2022-10-09T08:13:27.206Z,99.99
2022-10-09T08:14:27.182Z,99.99
2022-10-09T08:15:27.182Z,99.99
2022-10-09T08:16:27.166Z,99.99
2022-10-09T08:17:27.179Z,99.99
2022-10-09T08:18:27.127Z,99.99
2022-10-09T08:19:27.131Z,99.99
2022-10-09T08:20:27.110Z,99.99
2022-10-09T08:21:27.105Z,99.99
2022-10-09T08:22:27.109Z,99.99
2022-10-09T08:23:27.090Z,99.99
2022-10-09T08:24:27.067Z,99.99
2022-10-09T08:25:27.067Z,99.99
2022-10-09T08:26:27.044Z,99.99
2022-10-09T08:27:27.045Z,99.99
2022-10-09T08:28:27.071Z,99.99
2022-10-09T08:29:27.028Z,99.99
2022-10-09T08:30:27.006Z,99.99
2022-10-09T08:31:27.078Z,99.99
2022-10-09T08:32:26.982Z,99.99
2022-10-09T08:33:26.965Z,99.99
2022-10-09T08:34:26.975Z,99.99
2022-10-09T08:35:29.904Z,99.99
2022-10-09T08:36:27.938Z,99.99
2022-10-09T08:37:26.919Z,99.99
2022-10-09T08:38:46.287Z,99.58
2022-10-09T08:39:27.914Z,99.43
2022-10-09T08:40:26.898Z,99.95
2022-10-09T08:41:27.805Z,99.99
2022-10-09T08:42:26.873Z,99.22
2022-10-09T08:43:26.851Z,99.12
2022-10-09T08:44:26.880Z,99.43
2022-10-09T08:45:29.805Z,99.18
2022-10-09T08:46:27.894Z,98.97
2022-10-09T08:47:26.825Z,98.97
2022-10-09T08:48:29.307Z,98.62
2022-10-09T08:49:26.786Z,98.62
2022-10-09T08:50:26.815Z,98.83
2022-10-09T08:51:26.772Z,98.25
2022-10-09T08:52:27.310Z,98.72
2022-10-09T08:53:26.840Z,98.99
2022-10-09T08:54:27.313Z,98.52
2022-10-09T08:55:26.744Z,98.27
2022-10-09T08:56:26.738Z,98.47
2022-10-09T08:57:27.307Z,98.16
2022-10-09T08:58:26.701Z,98.27
2022-10-09T08:59:27.308Z,98.27
2022-10-09T09:00:26.706Z,97.81
2022-10-09T09:01:26.949Z,98.22
2022-10-09T09:02:26.705Z,98.12
2022-10-09T09:03:26.657Z,98.02
2022-10-09T09:04:26.630Z,97.97
2022-10-09T09:05:26.612Z,97.20
2022-10-09T09:06:26.842Z,97.15
2022-10-09T09:07:27.310Z,96.54
2022-10-09T09:08:27.313Z,96.03
2022-10-09T09:09:26.606Z,95.72
2022-10-09T09:10:33.311Z,95.67
2022-10-09T09:11:26.554Z,96.08
2022-10-09T09:12:27.308Z,95.26
2022-10-09T09:13:26.559Z,94.75
2022-10-09T09:14:27.313Z,94.81
2022-10-09T09:15:26.538Z,95.06
2022-10-09T09:16:27.378Z,94.60
2022-10-09T09:17:27.320Z,94.30
2022-10-09T09:18:27.311Z,94.26
2022-10-09T09:19:26.485Z,94.87
2022-10-09T09:20:26.474Z,94.26
2022-10-09T09:21:27.316Z,94.01
2022-10-09T09:22:27.317Z,93.70
2022-10-09T09:23:27.309Z,93.80
2022-10-09T09:24:27.310Z,93.15
2022-10-09T09:25:26.424Z,92.74
2022-10-09T09:26:26.838Z,92.74
2022-10-09T09:27:27.310Z,92.23
2022-10-09T09:28:27.346Z,92.29
2022-10-09T09:29:26.351Z,91.78
2022-10-09T09:30:27.308Z,91.27
2022-10-09T09:31:26.400Z,90.81
2022-10-09T09:32:26.359Z,91.43
2022-10-09T09:33:26.820Z,91.53
2022-10-09T09:34:32.805Z,91.02
2022-10-09T09:35:26.289Z,91.43
2022-10-09T09:36:26.346Z,91.22
2022-10-09T09:37:26.806Z,90.20
2022-10-09T09:38:26.817Z,90.41
2022-10-09T09:40:30.882Z,88.93
2022-10-09T09:40:46.818Z,89.04
2022-10-09T09:41:27.236Z,89.25
2022-10-09T09:42:26.218Z,88.93
2022-10-09T09:43:26.216Z,88.63
2022-10-09T09:44:26.193Z,87.57
2022-10-09T09:45:26.195Z,87.67
2022-10-09T09:46:26.271Z,87.06
2022-10-09T09:47:26.202Z,87.88
2022-10-09T09:48:26.239Z,88.39
2022-10-09T09:49:26.148Z,86.82
2022-10-09T09:50:46.024Z,87.16
2022-10-09T09:51:28.829Z,87.63
2022-10-09T09:52:26.818Z,87.63
2022-10-09T09:53:26.105Z,87.29
2022-10-09T09:54:26.077Z,87.38
2022-10-09T09:55:28.809Z,86.98
2022-10-09T09:56:26.057Z,85.66
2022-10-09T09:57:26.070Z,85.05
2022-10-09T09:58:26.817Z,83.72
2022-10-09T09:59:27.315Z,84.12
2022-10-09T10:00:26.007Z,83.98
2022-10-09T10:01:26.976Z,84.29
2022-10-09T10:02:26.104Z,84.39
2022-10-09T10:03:25.990Z,83.78
2022-10-09T10:04:31.358Z,83.98
2022-10-09T10:05:25.959Z,84.97
2022-10-09T10:06:25.948Z,84.15
2022-10-09T10:07:26.809Z,83.03
2022-10-09T10:08:28.812Z,83.03
2022-10-09T10:09:26.356Z,83.70
2022-10-09T10:10:26.967Z,83.91
2022-10-09T10:11:26.815Z,82.68
2022-10-09T10:12:26.818Z,82.79
2022-10-09T10:13:26.820Z,81.98
2022-10-09T10:14:26.339Z,81.98
2022-10-09T10:15:28.814Z,80.85
2022-10-09T10:16:26.888Z,82.18
2022-10-09T10:17:28.819Z,83.20
2022-10-09T10:18:28.316Z,83.46
2022-10-09T10:19:28.317Z,83.67
2022-10-09T10:20:30.860Z,82.51
2022-10-09T10:21:40.321Z,82.10
2022-10-09T10:22:28.316Z,81.29
2022-10-09T10:23:32.316Z,81.09
2022-10-09T10:24:32.317Z,80.94
2022-10-09T10:25:28.317Z,80.84
2022-10-09T10:26:28.844Z,80.84
2022-10-09T10:27:28.331Z,80.64
2022-10-09T10:28:34.346Z,79.69
2022-10-09T10:29:28.314Z,80.19
2022-10-09T10:30:40.319Z,79.49
2022-10-09T10:31:28.344Z,80.10
2022-10-09T10:32:46.678Z,79.99
2022-10-09T10:33:28.317Z,79.79
2022-10-09T10:34:27.328Z,79.69
2022-10-09T10:35:28.322Z,79.79
2022-10-09T10:36:28.332Z,80.10
2022-10-09T10:37:28.346Z,78.67
2022-10-09T10:38:28.318Z,77.83
2022-10-09T10:39:25.613Z,78.13
2022-10-09T10:40:25.569Z,79.04
2022-10-09T10:41:28.328Z,78.84
2022-10-09T10:42:25.553Z,78.84
2022-10-09T10:43:25.551Z,77.72
2022-10-09T10:44:27.483Z,78.13
2022-10-09T10:45:28.325Z,76.91
2022-10-09T10:46:25.536Z,77.32
2022-10-09T10:47:28.355Z,77.72
2022-10-09T10:48:25.838Z,78.19
2022-10-09T10:49:32.889Z,76.78
2022-10-09T10:50:29.323Z,76.57
2022-10-09T10:51:28.316Z,77.38
2022-10-09T10:52:28.340Z,76.57
2022-10-09T10:53:25.456Z,76.64
2022-10-09T10:54:32.324Z,76.33
2022-10-09T10:55:28.327Z,76.74
2022-10-09T10:56:25.404Z,76.90
2022-10-09T10:57:26.314Z,77.01
2022-10-09T10:58:28.853Z,76.60
2022-10-09T10:59:25.398Z,75.89
2022-10-09T11:00:25.362Z,75.76
2022-10-09T11:01:25.460Z,76.36
2022-10-09T11:02:25.351Z,76.26
2022-10-09T11:03:25.433Z,76.36
2022-10-09T11:04:25.318Z,75.92
2022-10-09T11:05:25.827Z,75.52
2022-10-09T11:06:31.825Z,74.91
2022-10-09T11:07:25.823Z,75.72
2022-10-09T11:08:39.841Z,76.19
2022-10-09T11:09:25.350Z,75.38
2022-10-09T11:10:25.278Z,74.40
2022-10-09T11:11:25.248Z,75.68
2022-10-09T11:12:46.672Z,74.07
2022-10-09T11:13:26.825Z,73.76
2022-10-09T11:14:25.212Z,73.96
2022-10-09T11:15:25.195Z,72.34
2022-10-09T11:16:25.306Z,72.31
2022-10-09T11:17:25.167Z,72.31
2022-10-09T11:18:25.177Z,71.91
2022-10-09T11:19:25.167Z,73.72
2022-10-09T11:20:25.348Z,74.43
2022-10-09T11:21:25.152Z,72.38
2022-10-09T11:22:25.117Z,72.78
2022-10-09T11:23:31.825Z,72.28
2022-10-09T11:24:25.133Z,72.34
2022-10-09T11:25:31.826Z,72.08
2022-10-09T11:26:25.099Z,71.26
2022-10-09T11:27:25.826Z,71.17
2022-10-09T11:28:25.911Z,70.66
2022-10-09T11:29:25.827Z,70.76
2022-10-09T11:30:25.042Z,71.37
2022-10-09T11:31:25.112Z,70.12
2022-10-09T11:32:25.838Z,68.98
2022-10-09T11:33:25.830Z,69.48
2022-10-09T11:34:31.819Z,69.89
2022-10-09T11:35:26.859Z,69.18
2022-10-09T11:36:24.960Z,68.17
2022-10-09T11:37:24.972Z,69.89
2022-10-09T11:38:25.354Z,68.84
2022-10-09T11:39:27.925Z,69.95
2022-10-09T11:40:25.826Z,68.47
2022-10-09T11:41:25.820Z,68.95
2022-10-09T11:42:25.833Z,68.41
2022-10-09T11:43:25.818Z,68.30
2022-10-09T11:44:25.364Z,67.90
2022-10-09T11:45:24.888Z,67.30
2022-10-09T11:46:27.821Z,67.70
2022-10-09T11:47:24.849Z,66.56
2022-10-09T11:48:24.820Z,66.59
2022-10-09T11:49:24.845Z,65.88
2022-10-09T11:50:24.832Z,64.78
2022-10-09T11:51:24.817Z,67.67
2022-10-09T11:52:25.326Z,66.86
2022-10-09T11:53:24.798Z,65.05
2022-10-09T11:54:24.783Z,65.25
2022-10-09T11:55:31.353Z,64.98
2022-10-09T11:56:45.751Z,64.17
2022-10-09T11:57:24.732Z,63.33
2022-10-09T11:58:24.724Z,63.33
2022-10-09T11:59:24.731Z,63.23
2022-10-09T12:00:24.706Z,63.06
2022-10-09T12:01:24.766Z,64.95
2022-10-09T12:02:24.706Z,64.75
2022-10-09T12:03:31.327Z,65.55
2022-10-09T12:04:50.092Z,64.54
2022-10-09T12:05:25.865Z,64.87
2022-10-09T12:06:27.326Z,66.69
2022-10-09T12:07:24.718Z,65.78
2022-10-09T12:08:24.622Z,66.96
2022-10-09T12:09:25.327Z,66.16
2022-10-09T12:10:25.341Z,66.08
2022-10-09T12:11:24.604Z,66.66
2022-10-09T12:12:24.565Z,66.33
2022-10-09T12:13:24.577Z,65.32
2022-10-09T12:14:31.337Z,66.33
2022-10-09T12:15:24.533Z,64.11
2022-10-09T12:16:24.571Z,64.72
2022-10-09T12:17:24.523Z,65.19
2022-10-09T12:18:24.525Z,64.18
2022-10-09T12:19:24.521Z,62.16
2022-10-09T12:20:24.477Z,62.26
2022-10-09T12:21:24.474Z,64.95
2022-10-09T12:22:24.863Z,63.14
2022-10-09T12:23:27.214Z,61.53
2022-10-09T12:24:31.329Z,58.88
2022-10-09T12:25:24.467Z,59.72
2022-10-09T12:26:27.347Z,61.03
2022-10-09T12:27:24.409Z,60.29
2022-10-09T12:28:24.467Z,60.89
2022-10-09T12:29:34.856Z,62.24
2022-10-09T12:30:25.366Z,59.69
2022-10-09T12:31:25.368Z,61.10
2022-10-09T12:32:25.328Z,61.20
2022-10-09T12:33:25.328Z,60.93
2022-10-09T12:34:24.840Z,60.89
2022-10-09T12:35:24.371Z,60.12
2022-10-09T12:36:24.313Z,60.63
2022-10-09T12:37:24.357Z,61.43
2022-10-09T12:38:24.281Z,59.82
2022-10-09T12:39:24.295Z,60.19
2022-10-09T12:40:24.268Z,57.98
2022-10-09T12:41:24.275Z,58.35
2022-10-09T12:42:26.969Z,58.95
2022-10-09T12:43:24.239Z,59.16
2022-10-09T12:44:24.218Z,59.56
2022-10-09T12:45:24.223Z,57.88
2022-10-09T12:46:24.476Z,58.18
2022-10-09T12:47:24.200Z,58.75
2022-10-09T12:48:24.182Z,59.06
2022-10-09T12:49:24.165Z,58.68
2022-10-09T12:50:24.845Z,59.66
2022-10-09T12:51:24.150Z,60.47
2022-10-09T12:52:24.365Z,62.65
2022-10-09T12:53:25.153Z,60.94